createdAt,value
2019-03-29T00:02:11.671Z,10.80
2019-03-29T00:04:43.509Z,10.00
2019-03-29T00:07:15.512Z,10.77
2019-03-29T00:09:47.481Z,10.10
2019-03-29T00:12:19.439Z,11.53
2019-03-29T00:14:51.410Z,9.80
2019-03-29T00:17:23.774Z,12.57
2019-03-29T00:19:55.747Z,11.00
2019-03-29T00:22:27.595Z,11.70
2019-03-29T00:24:59.508Z,11.63
2019-03-29T00:27:31.489Z,11.87
2019-03-29T00:30:03.751Z,12.20
2019-03-29T00:32:35.632Z,11.83
2019-03-29T00:35:08.405Z,12.30
2019-03-29T00:37:52.989Z,13.63
2019-03-29T00:40:14.059Z,12.60
2019-03-29T00:42:45.879Z,13.00
2019-03-29T00:45:19.013Z,12.47
2019-03-29T00:47:51.200Z,13.20
2019-03-29T00:50:23.143Z,13.50
2019-03-29T00:52:55.104Z,14.30
2019-03-29T00:55:26.939Z,14.30
2019-03-29T00:57:58.974Z,14.20
2019-03-29T01:00:31.547Z,13.53
2019-03-29T01:03:04.204Z,14.37
2019-03-29T01:05:36.192Z,14.10
2019-03-29T01:08:10.410Z,14.63
2019-03-29T01:10:43.709Z,15.10
2019-03-29T01:13:15.741Z,15.83
2019-03-29T01:15:47.933Z,13.67
2019-03-29T01:18:19.990Z,14.40
2019-03-29T01:20:51.941Z,15.90
2019-03-29T01:23:24.130Z,16.23
2019-03-29T01:25:56.363Z,15.40
2019-03-29T01:28:28.178Z,15.20
2019-03-29T01:31:00.396Z,15.90
2019-03-29T01:33:32.490Z,16.20
2019-03-29T01:36:04.435Z,14.73
2019-03-29T01:38:36.298Z,15.30
2019-03-29T01:41:08.219Z,17.87
2019-03-29T01:43:40.320Z,15.57
2019-03-29T01:46:12.276Z,17.10
2019-03-29T01:48:44.503Z,16.73
2019-03-29T01:51:16.651Z,18.47
2019-03-29T01:53:48.602Z,16.20
2019-03-29T01:56:20.615Z,19.23
2019-03-29T01:58:52.507Z,15.97
2019-03-29T02:01:24.358Z,17.47
2019-03-29T02:03:56.316Z,17.23
2019-03-29T02:06:28.182Z,16.53
2019-03-29T02:09:00.360Z,17.20
2019-03-29T02:11:33.802Z,16.70
2019-03-29T02:14:05.806Z,18.97
2019-03-29T02:16:37.690Z,17.60
2019-03-29T02:19:09.518Z,18.50
2019-03-29T02:21:41.336Z,17.80
2019-03-29T02:24:13.329Z,16.30
2019-03-29T02:26:45.223Z,19.43
2019-03-29T02:29:17.075Z,17.80
2019-03-29T02:31:48.935Z,17.87
2019-03-29T02:34:20.909Z,18.30
2019-03-29T02:36:52.722Z,20.40
2019-03-29T02:39:26.768Z,19.90
2019-03-29T02:41:58.366Z,18.77
2019-03-29T02:44:30.379Z,19.90
2019-03-29T02:47:02.189Z,19.27
2019-03-29T02:49:35.007Z,19.10
2019-03-29T02:52:06.997Z,18.10
2019-03-29T02:54:39.059Z,17.53
2019-03-29T02:57:10.975Z,17.20
2019-03-29T02:59:42.873Z,20.23
2019-03-29T03:02:14.666Z,19.20
2019-03-29T03:04:46.613Z,19.60
2019-03-29T03:07:18.411Z,19.00
2019-03-29T03:09:50.404Z,19.90
2019-03-29T03:12:22.297Z,18.63
2019-03-29T03:14:54.239Z,20.60
2019-03-29T03:17:26.279Z,19.90
2019-03-29T03:19:58.227Z,19.10
2019-03-29T03:22:30.137Z,19.07
2019-03-29T03:25:02.411Z,19.57
2019-03-29T03:27:34.473Z,20.97
2019-03-29T03:30:08.241Z,21.20
2019-03-29T03:32:40.297Z,20.67
2019-03-29T03:35:12.934Z,21.20
2019-03-29T03:37:44.997Z,20.73
2019-03-29T03:40:17.257Z,20.90
2019-03-29T03:42:50.006Z,21.90
2019-03-29T03:45:21.933Z,19.90
2019-03-29T03:47:53.748Z,22.37
2019-03-29T03:50:40.646Z,21.70
2019-03-29T03:53:13.211Z,20.10
2019-03-29T03:55:45.427Z,20.27
2019-03-29T03:58:18.142Z,18.60
2019-03-29T04:00:55.997Z,21.53
2019-03-29T04:03:28.789Z,25.73
2019-03-29T04:06:00.774Z,25.53
2019-03-29T04:08:32.854Z,21.70
2019-03-29T04:11:04.975Z,21.13
2019-03-29T04:13:37.338Z,21.47
2019-03-29T04:16:09.237Z,24.30
2019-03-29T04:18:41.189Z,21.80
2019-03-29T04:21:13.138Z,24.00
2019-03-29T04:23:45.232Z,20.87
2019-03-29T04:26:17.069Z,18.80
2019-03-29T04:29:03.359Z,21.00
2019-03-29T04:31:22.829Z,20.63
2019-03-29T04:33:55.177Z,19.90
2019-03-29T04:36:27.175Z,19.40
2019-03-29T04:38:59.135Z,18.90
2019-03-29T04:41:30.988Z,19.10
2019-03-29T04:44:04.382Z,19.40
2019-03-29T04:46:36.666Z,18.07
2019-03-29T04:49:08.823Z,20.43
2019-03-29T04:51:40.657Z,22.53
2019-03-29T04:54:13.785Z,20.17
2019-03-29T04:56:45.680Z,19.33
2019-03-29T04:59:17.533Z,19.60
2019-03-29T05:01:49.554Z,19.87
2019-03-29T05:04:21.638Z,89.00
2019-03-29T05:06:53.583Z,23.20
2019-03-29T05:09:25.467Z,19.83
2019-03-29T05:11:57.331Z,22.03
2019-03-29T05:14:29.147Z,20.77
2019-03-29T05:17:00.973Z,19.63
2019-03-29T05:19:32.803Z,23.50
2019-03-29T05:22:04.687Z,23.20
2019-03-29T05:24:36.708Z,24.83
2019-03-29T05:27:08.751Z,22.20
2019-03-29T05:29:40.646Z,21.60
2019-03-29T05:32:12.651Z,25.77
2019-03-29T05:34:44.730Z,22.73
2019-03-29T05:37:17.597Z,24.43
2019-03-29T05:39:49.433Z,29.23
2019-03-29T05:42:22.311Z,26.33
2019-03-29T05:44:54.293Z,27.60
2019-03-29T05:47:26.254Z,30.80
2019-03-29T05:49:58.156Z,30.73
2019-03-29T05:52:30.164Z,28.93
2019-03-29T05:55:02.308Z,27.13
2019-03-29T05:57:34.226Z,28.20
2019-03-29T06:00:07.092Z,31.87
2019-03-29T06:02:39.097Z,31.17
2019-03-29T06:05:11.721Z,28.93
2019-03-29T06:07:43.587Z,30.03
2019-03-29T06:10:15.531Z,29.70
2019-03-29T06:12:47.498Z,26.50
2019-03-29T06:15:19.459Z,29.30
2019-03-29T06:17:51.488Z,27.30
2019-03-29T06:20:24.361Z,28.47
2019-03-29T06:22:56.385Z,27.10
2019-03-29T06:25:28.213Z,27.00
2019-03-29T06:28:00.024Z,26.00
2019-03-29T06:30:33.106Z,28.07
2019-03-29T06:33:05.133Z,27.93
2019-03-29T06:35:41.389Z,24.73
2019-03-29T06:38:13.928Z,29.27
2019-03-29T06:40:47.060Z,28.90
2019-03-29T06:43:19.044Z,26.77
2019-03-29T06:45:50.975Z,34.80
2019-03-29T06:48:23.199Z,39.17
2019-03-29T06:50:55.190Z,33.83
2019-03-29T06:53:27.198Z,38.90
2019-03-29T06:55:59.507Z,31.00
2019-03-29T06:58:31.642Z,31.77
2019-03-29T07:01:03.609Z,28.17
2019-03-29T07:03:35.512Z,29.53
2019-03-29T07:06:07.486Z,31.90
2019-03-29T07:08:39.468Z,30.50
2019-03-29T07:11:17.781Z,30.70
2019-03-29T07:13:56.821Z,32.43
2019-03-29T07:16:18.868Z,29.27
2019-03-29T07:18:51.224Z,29.70
2019-03-29T07:21:23.156Z,30.77
2019-03-29T07:23:56.210Z,29.60
2019-03-29T07:26:28.021Z,27.80
2019-03-29T07:28:59.927Z,27.33
2019-03-29T07:31:31.850Z,31.17
2019-03-29T07:34:04.119Z,29.90
2019-03-29T07:36:36.015Z,27.43
2019-03-29T07:39:08.551Z,28.70
2019-03-29T07:41:40.345Z,29.53
2019-03-29T07:44:12.174Z,27.57
2019-03-29T07:46:44.252Z,27.80
2019-03-29T07:49:16.243Z,26.97
2019-03-29T07:51:48.117Z,27.70
2019-03-29T07:54:20.204Z,25.00
2019-03-29T07:56:52.076Z,25.70
2019-03-29T07:59:24.255Z,21.93
2019-03-29T08:01:56.232Z,23.33
2019-03-29T08:04:28.055Z,23.70
2019-03-29T08:06:59.974Z,24.43
2019-03-29T08:09:31.982Z,23.03
2019-03-29T08:12:03.945Z,22.97
2019-03-29T08:14:35.830Z,22.47
2019-03-29T08:17:07.806Z,24.70
2019-03-29T08:19:39.783Z,23.30
2019-03-29T08:22:11.937Z,22.63
2019-03-29T08:24:44.014Z,22.97
2019-03-29T08:27:17.042Z,22.87
2019-03-29T08:29:49.024Z,24.27
2019-03-29T08:32:21.003Z,22.60
2019-03-29T08:34:52.991Z,21.20
2019-03-29T08:37:25.098Z,22.30
2019-03-29T08:39:56.949Z,22.60
2019-03-29T08:42:29.035Z,24.60
2019-03-29T08:45:01.036Z,22.67
2019-03-29T08:47:32.930Z,23.03
2019-03-29T08:50:05.755Z,24.00
2019-03-29T08:52:37.718Z,23.00
2019-03-29T08:55:10.615Z,24.87
2019-03-29T08:57:42.524Z,23.07
2019-03-29T09:00:17.738Z,22.50
2019-03-29T09:02:49.907Z,23.53
2019-03-29T09:05:21.836Z,23.10
2019-03-29T09:07:54.057Z,22.60
2019-03-29T09:10:27.487Z,22.53
2019-03-29T09:12:59.331Z,22.40
2019-03-29T09:15:31.207Z,20.30
2019-03-29T09:18:03.586Z,22.17
2019-03-29T09:20:35.593Z,20.37
2019-03-29T09:23:10.288Z,20.30
2019-03-29T09:25:41.286Z,18.93
2019-03-29T09:28:13.316Z,19.10
2019-03-29T09:30:45.255Z,18.33
2019-03-29T09:33:17.099Z,19.07
2019-03-29T09:35:49.309Z,18.70
2019-03-29T09:38:21.292Z,19.67
2019-03-29T09:40:58.656Z,18.60
2019-03-29T09:43:27.390Z,18.13
2019-03-29T09:46:02.997Z,17.00
2019-03-29T09:48:34.556Z,18.57
2019-03-29T09:51:07.051Z,16.90
2019-03-29T09:53:41.132Z,16.37
2019-03-29T09:56:14.083Z,17.10
2019-03-29T09:58:45.890Z,16.80
2019-03-29T10:01:20.802Z,16.00
2019-03-29T10:03:51.550Z,16.37
2019-03-29T10:06:23.372Z,13.20
2019-03-29T10:08:55.266Z,13.80
2019-03-29T10:11:27.240Z,15.00
2019-03-29T10:13:59.136Z,16.10
2019-03-29T10:16:30.964Z,16.40
2019-03-29T10:19:02.814Z,14.37
2019-03-29T10:21:34.793Z,14.30
2019-03-29T10:24:06.772Z,14.17
2019-03-29T10:26:39.755Z,15.27
2019-03-29T10:29:11.751Z,14.27
2019-03-29T10:31:43.779Z,15.13
2019-03-29T10:34:15.707Z,16.50
2019-03-29T10:36:47.697Z,15.27
2019-03-29T10:39:20.847Z,14.30
2019-03-29T10:41:52.990Z,13.63
2019-03-29T10:44:24.979Z,16.17
2019-03-29T10:46:57.157Z,14.20
2019-03-29T10:49:29.312Z,13.80
2019-03-29T10:52:01.308Z,13.40
2019-03-29T10:54:33.148Z,14.47
2019-03-29T10:57:05.115Z,14.57
2019-03-29T10:59:37.123Z,12.47
2019-03-29T11:02:09.113Z,12.17
2019-03-29T11:04:42.063Z,14.43
2019-03-29T11:07:14.041Z,13.93
2019-03-29T11:09:46.049Z,12.90
2019-03-29T11:12:17.930Z,13.30
2019-03-29T11:14:49.876Z,13.43
2019-03-29T11:17:21.812Z,12.37
2019-03-29T11:19:53.715Z,11.97
2019-03-29T11:22:25.711Z,13.07
2019-03-29T11:24:57.599Z,13.50
2019-03-29T11:27:29.610Z,13.57
2019-03-29T11:30:01.464Z,13.20
2019-03-29T11:32:34.625Z,11.80
2019-03-29T11:35:06.884Z,11.37
2019-03-29T11:37:38.705Z,11.33
2019-03-29T11:40:11.053Z,10.70
2019-03-29T11:42:44.026Z,11.00
2019-03-29T11:45:16.183Z,9.20
2019-03-29T11:47:48.215Z,10.73
2019-03-29T11:50:20.301Z,9.70
2019-03-29T11:52:52.298Z,10.80
2019-03-29T11:55:24.281Z,10.40
2019-03-29T11:57:57.190Z,9.67
2019-03-29T12:00:40.647Z,9.80
2019-03-29T12:03:13.156Z,9.40
2019-03-29T12:05:45.221Z,8.50
2019-03-29T12:08:17.272Z,9.93
2019-03-29T12:10:49.226Z,9.73
2019-03-29T12:13:21.220Z,10.13
2019-03-29T12:15:53.210Z,9.50
2019-03-29T12:18:25.230Z,8.10
2019-03-29T12:20:57.167Z,9.17
2019-03-29T12:23:29.438Z,9.00
2019-03-29T12:26:01.359Z,8.63
2019-03-29T12:28:33.259Z,10.40
2019-03-29T12:31:05.063Z,10.10
2019-03-29T12:33:36.983Z,8.93
2019-03-29T12:36:08.797Z,9.53
2019-03-29T12:38:40.700Z,8.90
2019-03-29T12:41:12.518Z,8.20
2019-03-29T12:43:54.878Z,9.03
2019-03-29T12:46:18.037Z,9.10
2019-03-29T12:48:50.457Z,9.77
2019-03-29T12:51:22.871Z,10.43
2019-03-29T12:53:54.956Z,11.87
2019-03-29T12:56:27.105Z,11.37
2019-03-29T12:58:59.011Z,11.30
2019-03-29T13:01:39.429Z,8.43
2019-03-29T13:04:04.685Z,10.03
2019-03-29T13:06:36.787Z,8.93
2019-03-29T13:09:09.721Z,9.53
2019-03-29T13:11:41.748Z,8.80
2019-03-29T13:14:13.571Z,11.10
2019-03-29T13:16:45.470Z,8.40
2019-03-29T13:19:17.411Z,9.57
2019-03-29T13:21:49.425Z,8.43
2019-03-29T13:24:21.346Z,8.83
2019-03-29T13:26:54.418Z,8.73
2019-03-29T13:29:26.434Z,8.70
2019-03-29T13:31:58.530Z,9.83
2019-03-29T13:34:30.371Z,9.77
2019-03-29T13:37:02.447Z,9.00
2019-03-29T13:39:34.393Z,10.13
2019-03-29T13:42:06.289Z,9.83
2019-03-29T13:44:38.163Z,10.73
2019-03-29T13:47:10.139Z,8.90
2019-03-29T13:49:42.253Z,9.27
2019-03-29T13:52:14.216Z,9.40
2019-03-29T13:54:46.193Z,10.17
2019-03-29T13:57:18.040Z,9.83
2019-03-29T13:59:50.039Z,10.00
2019-03-29T14:02:22.236Z,11.40
2019-03-29T14:04:54.258Z,10.53
2019-03-29T14:07:26.190Z,9.93
2019-03-29T14:09:58.096Z,9.77
2019-03-29T14:12:30.100Z,10.53
2019-03-29T14:15:02.993Z,9.90
2019-03-29T14:17:36.008Z,10.00
2019-03-29T14:20:09.764Z,10.37
2019-03-29T14:22:41.725Z,10.33
2019-03-29T14:25:14.010Z,9.33
2019-03-29T14:27:45.947Z,9.63
2019-03-29T14:30:18.168Z,11.13
2019-03-29T14:32:49.986Z,10.43
2019-03-29T14:35:22.026Z,10.47
2019-03-29T14:37:54.194Z,10.63
2019-03-29T14:40:26.208Z,9.50
2019-03-29T14:42:58.277Z,9.90
2019-03-29T14:45:30.298Z,11.47
2019-03-29T14:48:02.597Z,11.30
2019-03-29T14:50:34.545Z,11.23
2019-03-29T14:53:06.648Z,10.63
2019-03-29T14:55:38.829Z,12.00
2019-03-29T14:58:10.982Z,12.23
2019-03-29T15:00:48.375Z,11.93
2019-03-29T15:03:18.836Z,11.27
2019-03-29T15:05:51.200Z,10.20
2019-03-29T15:08:23.023Z,11.17
2019-03-29T15:10:54.905Z,10.80
2019-03-29T15:13:26.823Z,10.43
2019-03-29T15:15:58.888Z,11.83
2019-03-29T15:18:31.075Z,10.77
2019-03-29T15:21:02.968Z,9.80
2019-03-29T15:23:34.916Z,10.37
2019-03-29T15:26:06.869Z,9.73
2019-03-29T15:28:38.757Z,9.90
2019-03-29T15:31:10.733Z,9.60
2019-03-29T15:33:42.767Z,11.17
2019-03-29T15:36:14.772Z,10.10
2019-03-29T15:38:46.661Z,9.83
2019-03-29T15:41:18.665Z,9.57
2019-03-29T15:43:50.501Z,12.03
2019-03-29T15:46:22.558Z,11.27
2019-03-29T15:48:54.448Z,10.50
2019-03-29T15:51:26.492Z,10.40
2019-03-29T15:53:58.407Z,10.20
2019-03-29T15:56:31.441Z,10.87
2019-03-29T15:59:03.403Z,10.83
2019-03-29T16:01:35.245Z,10.67
2019-03-29T16:04:07.355Z,10.70
2019-03-29T16:06:39.375Z,10.40
2019-03-29T16:09:11.276Z,10.40
2019-03-29T16:11:43.397Z,10.90
2019-03-29T16:14:16.428Z,10.20
2019-03-29T16:16:48.387Z,9.77
2019-03-29T16:19:20.187Z,9.20
2019-03-29T16:21:52.113Z,11.00
2019-03-29T16:24:24.205Z,10.43
2019-03-29T16:26:56.079Z,11.17
2019-03-29T16:29:27.958Z,10.60
2019-03-29T16:31:59.784Z,10.60
2019-03-29T16:34:31.706Z,10.93
2019-03-29T16:37:03.540Z,11.50
2019-03-29T16:39:35.403Z,11.20
2019-03-29T16:42:07.582Z,10.93
2019-03-29T16:44:39.557Z,10.50
2019-03-29T16:47:11.770Z,10.60
2019-03-29T16:49:43.750Z,11.50
2019-03-29T16:52:15.840Z,10.90
2019-03-29T16:54:47.861Z,11.30
2019-03-29T16:57:19.836Z,10.07
2019-03-29T16:59:52.710Z,11.20
2019-03-29T17:02:24.673Z,11.23
2019-03-29T17:04:56.608Z,10.10
2019-03-29T17:07:28.506Z,11.90
2019-03-29T17:10:00.657Z,12.90
2019-03-29T17:12:32.465Z,11.70
2019-03-29T17:15:04.709Z,10.50
2019-03-29T17:17:36.967Z,10.87
2019-03-29T17:20:10.566Z,11.40
2019-03-29T17:22:43.474Z,10.33
2019-03-29T17:25:15.825Z,10.50
2019-03-29T17:27:47.811Z,9.27
2019-03-29T17:30:35.543Z,10.47
2019-03-29T17:33:07.433Z,10.30
2019-03-29T17:35:39.242Z,9.77
2019-03-29T17:38:11.191Z,10.90
2019-03-29T17:40:43.026Z,12.40
2019-03-29T17:43:14.998Z,11.30
2019-03-29T17:45:47.273Z,11.00
2019-03-29T17:48:19.259Z,12.27
2019-03-29T17:50:51.263Z,11.10
2019-03-29T17:53:23.077Z,11.10
2019-03-29T17:55:55.150Z,11.50
2019-03-29T17:58:26.972Z,11.97
2019-03-29T18:00:58.919Z,11.27
2019-03-29T18:03:30.904Z,12.00
2019-03-29T18:06:02.861Z,11.40
2019-03-29T18:08:34.820Z,14.17
2019-03-29T18:11:06.859Z,13.53
2019-03-29T18:13:38.812Z,15.00
2019-03-29T18:16:10.837Z,14.93
2019-03-29T18:18:42.803Z,14.03
2019-03-29T18:21:14.824Z,15.40
2019-03-29T18:23:46.747Z,16.90
2019-03-29T18:26:18.671Z,18.37
2019-03-29T18:28:51.757Z,16.83
2019-03-29T18:31:23.809Z,16.73
2019-03-29T18:33:55.870Z,19.10
2019-03-29T18:36:28.234Z,19.20
2019-03-29T18:39:00.344Z,19.13
2019-03-29T18:41:32.322Z,20.57
2019-03-29T18:44:04.259Z,20.70
2019-03-29T18:46:44.443Z,18.47
2019-03-29T18:49:09.752Z,21.30
2019-03-29T18:51:41.671Z,20.90
2019-03-29T18:54:13.759Z,21.30
2019-03-29T18:56:45.781Z,21.17
2019-03-29T18:59:17.755Z,19.43
2019-03-29T19:01:49.632Z,19.47
2019-03-29T19:04:21.633Z,19.47
2019-03-29T19:06:53.511Z,19.13
2019-03-29T19:09:25.476Z,18.10
2019-03-29T19:11:57.336Z,17.90
2019-03-29T19:14:29.312Z,17.83
2019-03-29T19:17:01.309Z,17.63
2019-03-29T19:19:33.273Z,18.93
2019-03-29T19:22:05.366Z,19.40
2019-03-29T19:24:37.238Z,18.57
2019-03-29T19:27:09.275Z,18.30
2019-03-29T19:29:41.232Z,18.30
2019-03-29T19:32:13.076Z,19.23
2019-03-29T19:34:45.258Z,19.50
2019-03-29T19:37:17.114Z,19.73
2019-03-29T19:39:49.179Z,19.50
2019-03-29T19:42:21.243Z,20.53
2019-03-29T19:44:53.303Z,19.57
2019-03-29T19:47:25.466Z,19.97
2019-03-29T19:49:57.543Z,21.00
2019-03-29T19:52:29.558Z,20.00
2019-03-29T19:55:01.984Z,18.80
2019-03-29T19:57:34.299Z,19.70
2019-03-29T20:00:09.405Z,20.23
2019-03-29T20:02:41.378Z,19.37
2019-03-29T20:05:28.070Z,18.90
2019-03-29T20:08:00.445Z,19.80
2019-03-29T20:10:32.496Z,18.93
2019-03-29T20:13:04.796Z,19.37
2019-03-29T20:15:36.752Z,22.20
2019-03-29T20:18:08.850Z,20.13
2019-03-29T20:20:40.839Z,20.60
2019-03-29T20:23:12.765Z,20.40
2019-03-29T20:25:44.673Z,22.13
2019-03-29T20:28:16.649Z,20.90
2019-03-29T20:30:48.655Z,22.57
2019-03-29T20:33:20.793Z,22.00
2019-03-29T20:35:52.770Z,22.37
2019-03-29T20:38:24.768Z,23.27
2019-03-29T20:40:56.756Z,22.83
2019-03-29T20:43:28.848Z,21.90
2019-03-29T20:46:00.802Z,21.67
2019-03-29T20:48:32.865Z,22.40
2019-03-29T20:51:04.820Z,24.40
2019-03-29T20:53:36.788Z,22.63
2019-03-29T20:56:08.659Z,23.23
2019-03-29T20:58:40.561Z,22.93
2019-03-29T21:01:12.655Z,22.60
2019-03-29T21:03:44.851Z,21.93
2019-03-29T21:06:16.711Z,24.47
2019-03-29T21:08:48.734Z,23.50
2019-03-29T21:11:20.717Z,22.80
2019-03-29T21:13:52.690Z,24.03
2019-03-29T21:16:24.504Z,24.57
2019-03-29T21:18:56.339Z,22.50
2019-03-29T21:21:28.356Z,22.67
2019-03-29T21:24:00.203Z,21.40
2019-03-29T21:26:32.079Z,22.43
2019-03-29T21:29:04.130Z,20.73
2019-03-29T21:31:36.326Z,22.63
2019-03-29T21:34:08.310Z,24.53
2019-03-29T21:36:40.273Z,25.10
2019-03-29T21:39:14.581Z,24.10
2019-03-29T21:41:46.528Z,23.80
2019-03-29T21:44:18.495Z,23.93
2019-03-29T21:46:50.558Z,24.03
2019-03-29T21:49:22.447Z,23.57
2019-03-29T21:51:54.340Z,24.77
2019-03-29T21:54:27.571Z,21.47
2019-03-29T21:56:59.534Z,23.20
2019-03-29T21:59:31.457Z,24.63
2019-03-29T22:02:03.293Z,23.27
2019-03-29T22:04:35.307Z,22.60
2019-03-29T22:07:07.309Z,22.13
2019-03-29T22:09:39.149Z,22.30
2019-03-29T22:12:10.966Z,21.60
2019-03-29T22:14:42.795Z,21.73
2019-03-29T22:17:14.622Z,22.63
2019-03-29T22:19:46.524Z,21.80
2019-03-29T22:22:18.536Z,19.87
2019-03-29T22:24:50.436Z,22.07
2019-03-29T22:27:22.552Z,19.83
2019-03-29T22:29:54.645Z,20.97
2019-03-29T22:32:26.505Z,19.40
2019-03-29T22:34:58.544Z,20.60
2019-03-29T22:37:30.334Z,19.63
2019-03-29T22:40:02.414Z,20.90
2019-03-29T22:42:34.579Z,20.30
2019-03-29T22:45:09.696Z,20.40
2019-03-29T22:47:41.667Z,20.63
2019-03-29T22:50:13.838Z,20.20
2019-03-29T22:52:45.775Z,19.47
2019-03-29T22:55:17.769Z,18.10
2019-03-29T22:57:49.678Z,18.40
2019-03-29T23:00:32.854Z,17.50
2019-03-29T23:03:07.221Z,18.80
2019-03-29T23:05:39.833Z,18.63
2019-03-29T23:08:11.967Z,17.83
2019-03-29T23:10:45.180Z,20.57
2019-03-29T23:13:17.043Z,19.67
2019-03-29T23:15:49.355Z,21.40
2019-03-29T23:18:21.409Z,20.87
2019-03-29T23:20:53.375Z,19.40
2019-03-29T23:23:25.235Z,18.27
2019-03-29T23:25:57.400Z,21.53
2019-03-29T23:28:29.643Z,20.70
2019-03-29T23:31:01.455Z,19.93
2019-03-29T23:33:33.679Z,19.80
2019-03-29T23:36:05.936Z,19.07
2019-03-29T23:38:37.811Z,19.80
2019-03-29T23:41:09.906Z,19.30
2019-03-29T23:43:41.767Z,19.00
2019-03-29T23:46:13.928Z,19.60
2019-03-29T23:48:46.073Z,20.30
2019-03-29T23:51:18.000Z,19.43
2019-03-29T23:53:50.047Z,19.50
2019-03-29T23:56:21.960Z,18.70
2019-03-29T23:58:54.011Z,19.93
